Time;durP1;ratioP1;P1;durP2;ratioP2;P2;SDS_P1;SDS_P2;PMS_P1;PMS_P2;Temp;Humidity;BMP_temperature;BMP_pressure;BME280_temperature;BME280_humidity;BME280_pressure;Samples;Min_cycle;Max_cycle;Signal;HPM_P1;HPM_P2
2021/11/29 00:02:10;;;;;;;;;;;3.70;99.90;;;;;;5008391;28;20374;-61
2021/11/29 00:04:36;;;;;;;;;;;3.70;99.90;;;;;;5023052;28;20408;-61
2021/11/29 00:07:02;;;;;;;;;;;3.60;99.90;;;;;;5026266;28;19915;-61
2021/11/29 00:09:27;;;;;;;;;;;3.60;99.90;;;;;;5024470;28;19939;-61
2021/11/29 00:11:53;;;;;;;;;;;3.60;99.90;;;;;;5028598;28;20494;-61
2021/11/29 00:14:18;;;;;;;;;;;3.60;99.90;;;;;;5025900;28;19923;-61
2021/11/29 00:16:43;;;;;;;;;;;3.60;99.90;;;;;;5022759;28;19920;-61
2021/11/29 00:19:09;;;;;;;;;;;3.60;99.90;;;;;;5026499;28;19928;-61
2021/11/29 00:21:34;;;;;;;;;;;3.50;99.90;;;;;;5026947;28;19918;-61
2021/11/29 00:24:01;;;;;;;;;;;3.50;99.90;;;;;;5027404;28;20031;-62
2021/11/29 00:26:27;;;;;;;;;;;3.50;99.90;;;;;;5030161;28;20338;-61
2021/11/29 00:28:53;;;;;;;;;;;3.40;99.90;;;;;;5025397;28;19999;-60
2021/11/29 00:31:18;;;;;;;;;;;3.40;99.90;;;;;;5028900;28;20031;-61
2021/11/29 00:33:44;;;;;;;;;;;3.40;99.90;;;;;;5028913;28;20293;-60
2021/11/29 00:36:09;;;;;;;;;;;3.40;99.90;;;;;;5030772;28;20293;-61
2021/11/29 00:38:35;;;;;;;;;;;3.40;99.90;;;;;;5024254;28;19917;-60
2021/11/29 00:41:00;;;;;;;;;;;3.30;99.90;;;;;;5030055;28;19939;-60
2021/11/29 00:43:26;;;;;;;;;;;3.40;99.90;;;;;;5027895;28;19952;-60
2021/11/29 00:45:51;;;;;;;;;;;3.40;99.90;;;;;;5030817;28;19916;-60
2021/11/29 00:48:17;;;;;;;;;;;3.40;99.90;;;;;;5027284;28;20361;-60
2021/11/29 00:50:42;;;;;;;;;;;3.40;99.90;;;;;;5029963;28;19913;-60
2021/11/29 00:53:09;;;;;;;;;;;3.40;99.90;;;;;;5027037;28;19960;-60
2021/11/29 00:55:36;;;;;;;;;;;3.40;99.90;;;;;;5029656;28;19909;-60
2021/11/29 00:58:01;;;;;;;;;;;3.40;99.90;;;;;;5024788;28;19914;-60
2021/11/29 01:00:27;;;;;;;;;;;3.40;99.90;;;;;;5028476;28;19928;-61
2021/11/29 01:02:54;;;;;;;;;;;3.50;99.90;;;;;;5027125;28;19966;-61
2021/11/29 01:05:20;;;;;;;;;;;3.50;99.90;;;;;;5025816;28;19963;-61
2021/11/29 01:07:45;;;;;;;;;;;3.50;99.90;;;;;;5022594;28;19913;-61
2021/11/29 01:10:11;;;;;;;;;;;3.50;99.90;;;;;;5028647;28;19920;-60
2021/11/29 01:12:37;;;;;;;;;;;3.50;99.90;;;;;;5027848;28;19924;-60
2021/11/29 01:15:03;;;;;;;;;;;3.50;99.90;;;;;;5027728;28;19913;-61
2021/11/29 01:17:29;;;;;;;;;;;3.50;99.90;;;;;;5028262;28;20000;-60
2021/11/29 01:19:55;;;;;;;;;;;3.50;99.90;;;;;;5025132;28;20052;-61
2021/11/29 01:22:20;;;;;;;;;;;3.50;99.90;;;;;;5029572;28;20086;-60
2021/11/29 01:24:46;;;;;;;;;;;3.60;99.90;;;;;;5029245;28;19999;-61
2021/11/29 01:27:11;;;;;;;;;;;3.60;99.90;;;;;;5024550;28;19920;-60
2021/11/29 01:29:37;;;;;;;;;;;3.60;99.90;;;;;;5024752;28;19917;-60
2021/11/29 01:32:03;;;;;;;;;;;3.60;99.90;;;;;;5025766;28;19917;-60
2021/11/29 01:34:29;;;;;;;;;;;3.60;99.90;;;;;;5017528;28;19923;-60
2021/11/29 01:36:54;;;;;;;;;;;3.60;99.90;;;;;;5025203;28;19913;-60
2021/11/29 01:39:20;;;;;;;;;;;3.60;99.90;;;;;;5024824;28;20079;-61
2021/11/29 01:41:47;;;;;;;;;;;3.60;99.90;;;;;;5027109;28;19948;-61
2021/11/29 01:44:12;;;;;;;;;;;3.60;99.90;;;;;;5027964;28;19956;-61
2021/11/29 01:46:38;;;;;;;;;;;3.60;99.90;;;;;;5026959;28;19960;-61
2021/11/29 01:49:04;;;;;;;;;;;3.60;99.90;;;;;;5027767;28;19917;-61
2021/11/29 01:51:30;;;;;;;;;;;3.70;99.90;;;;;;5026764;28;19994;-61
2021/11/29 01:53:55;;;;;;;;;;;3.70;99.90;;;;;;5026231;28;19916;-61
2021/11/29 01:56:21;;;;;;;;;;;3.70;99.90;;;;;;5027629;28;19956;-61
2021/11/29 01:58:46;;;;;;;;;;;3.70;99.90;;;;;;5024912;28;20336;-61
2021/11/29 02:01:14;;;;;;;;;;;3.80;99.90;;;;;;5024541;28;19968;-61
2021/11/29 02:03:44;;;;;;;;;;;3.70;99.90;;;;;;5027732;28;19917;-61
2021/11/29 02:06:10;;;;;;;;;;;3.70;99.90;;;;;;5026149;28;19917;-61
2021/11/29 02:08:36;;;;;;;;;;;3.80;99.90;;;;;;5027773;28;19928;-61
2021/11/29 02:11:01;;;;;;;;;;;3.70;99.90;;;;;;5026091;28;19917;-61
2021/11/29 02:13:27;;;;;;;;;;;3.70;99.90;;;;;;5022705;28;19913;-61
2021/11/29 02:15:52;;;;;;;;;;;3.70;99.90;;;;;;5026176;28;19917;-61
2021/11/29 02:18:19;;;;;;;;;;;3.70;99.90;;;;;;5010387;28;20366;-61
2021/11/29 02:21:18;;;;;;;;;;;3.70;99.90;;;;;;5025402;28;19917;-61
2021/11/29 02:23:46;;;;;;;;;;;3.70;99.90;;;;;;4992487;28;19917;-60
2021/11/29 02:26:12;;;;;;;;;;;3.70;99.90;;;;;;5023668;28;20015;-61
2021/11/29 02:28:38;;;;;;;;;;;3.60;99.90;;;;;;5026487;28;20378;-61
2021/11/29 02:31:08;;;;;;;;;;;3.60;99.90;;;;;;5023235;28;19917;-60
2021/11/29 02:33:34;;;;;;;;;;;3.70;99.90;;;;;;5026322;28;19913;-61
2021/11/29 02:36:00;;;;;;;;;;;3.60;99.90;;;;;;5028088;28;19959;-60
2021/11/29 02:38:26;;;;;;;;;;;3.60;99.90;;;;;;5023578;28;19924;-60
2021/11/29 02:40:51;;;;;;;;;;;3.60;99.90;;;;;;5025587;28;19917;-60
2021/11/29 02:43:17;;;;;;;;;;;3.60;99.90;;;;;;5023923;28;20442;-60
2021/11/29 02:45:42;;;;;;;;;;;3.60;99.90;;;;;;5026760;28;20352;-60
2021/11/29 02:48:08;;;;;;;;;;;3.60;99.90;;;;;;5028082;28;19957;-61
2021/11/29 02:50:37;;;;;;;;;;;3.60;99.90;;;;;;5025271;28;19913;-60
2021/11/29 02:53:04;;;;;;;;;;;3.60;99.90;;;;;;5025551;28;19909;-61
2021/11/29 02:55:30;;;;;;;;;;;3.60;99.90;;;;;;5025465;28;19917;-60
2021/11/29 02:57:55;;;;;;;;;;;3.60;99.90;;;;;;5008855;28;20274;-61
2021/11/29 03:00:21;;;;;;;;;;;3.60;99.90;;;;;;5025027;28;19924;-61
2021/11/29 03:03:00;;;;;;;;;;;3.60;99.90;;;;;;5022444;28;20286;-61
2021/11/29 03:05:25;;;;;;;;;;;3.60;99.90;;;;;;5025037;28;19956;-61
2021/11/29 03:07:51;;;;;;;;;;;3.60;99.90;;;;;;5027895;28;19948;-61
2021/11/29 03:10:16;;;;;;;;;;;3.60;99.90;;;;;;5022833;28;19917;-60
2021/11/29 03:12:42;;;;;;;;;;;3.60;99.90;;;;;;5023084;28;19924;-60
2021/11/29 03:15:07;;;;;;;;;;;3.60;99.90;;;;;;5023516;28;19917;-60
2021/11/29 03:17:33;;;;;;;;;;;3.60;99.90;;;;;;5006008;28;19936;-61
2021/11/29 03:19:58;;;;;;;;;;;3.60;99.90;;;;;;5024752;28;19948;-60
2021/11/29 03:22:23;;;;;;;;;;;3.60;99.90;;;;;;5027350;28;19971;-60
2021/11/29 03:24:49;;;;;;;;;;;3.50;99.90;;;;;;5025491;28;19955;-60
2021/11/29 03:27:15;;;;;;;;;;;3.50;99.90;;;;;;5026532;28;20201;-61
2021/11/29 03:29:43;;;;;;;;;;;3.50;99.90;;;;;;5024955;28;19954;-61
2021/11/29 03:32:10;;;;;;;;;;;3.50;99.90;;;;;;5026011;28;19917;-61
2021/11/29 03:34:36;;;;;;;;;;;3.50;99.90;;;;;;5024807;28;19967;-61
2021/11/29 03:37:02;;;;;;;;;;;3.50;99.90;;;;;;5026124;28;19917;-61
2021/11/29 03:39:28;;;;;;;;;;;3.50;99.90;;;;;;5025260;28;19917;-61
2021/11/29 03:41:55;;;;;;;;;;;3.50;99.90;;;;;;5027466;28;20130;-61
2021/11/29 03:44:21;;;;;;;;;;;3.50;99.90;;;;;;5024225;28;19917;-61
2021/11/29 03:46:47;;;;;;;;;;;3.50;99.90;;;;;;5026995;28;19909;-60
2021/11/29 03:49:13;;;;;;;;;;;3.50;99.90;;;;;;5023261;28;19917;-60
2021/11/29 03:51:39;;;;;;;;;;;3.40;99.90;;;;;;5026292;28;19943;-60
2021/11/29 03:54:05;;;;;;;;;;;3.40;99.90;;;;;;5023167;28;20471;-60
2021/11/29 03:56:31;;;;;;;;;;;3.40;99.90;;;;;;5026206;28;20281;-61
2021/11/29 03:58:56;;;;;;;;;;;3.40;99.90;;;;;;5021224;28;19913;-60
2021/11/29 04:01:22;;;;;;;;;;;3.40;99.90;;;;;;5022571;28;20366;-60
2021/11/29 04:03:47;;;;;;;;;;;3.40;99.90;;;;;;5026666;28;19909;-60
2021/11/29 04:06:13;;;;;;;;;;;3.40;99.90;;;;;;5027103;28;19917;-60
2021/11/29 04:08:38;;;;;;;;;;;3.40;99.90;;;;;;5024128;28;19917;-60
2021/11/29 04:11:04;;;;;;;;;;;3.40;99.90;;;;;;5024911;28;19959;-61
2021/11/29 04:13:29;;;;;;;;;;;3.40;99.90;;;;;;5026728;28;19917;-60
2021/11/29 04:15:54;;;;;;;;;;;3.40;99.90;;;;;;5026177;28;19913;-61
2021/11/29 04:18:20;;;;;;;;;;;3.40;99.90;;;;;;5027852;28;19914;-60
2021/11/29 04:20:46;;;;;;;;;;;3.40;99.90;;;;;;5024648;28;20003;-60
2021/11/29 04:23:12;;;;;;;;;;;3.40;99.90;;;;;;5025130;28;20007;-61
2021/11/29 04:25:51;;;;;;;;;;;3.40;99.90;;;;;;5025735;28;19987;-60
2021/11/29 04:28:16;;;;;;;;;;;3.40;99.90;;;;;;5022864;28;19924;-60
2021/11/29 04:30:42;;;;;;;;;;;3.40;99.90;;;;;;5024262;28;19917;-60
2021/11/29 04:33:07;;;;;;;;;;;3.50;99.90;;;;;;5027197;28;19920;-61
2021/11/29 04:35:33;;;;;;;;;;;3.50;99.90;;;;;;5025522;28;19939;-61
2021/11/29 04:37:58;;;;;;;;;;;3.50;99.90;;;;;;5025307;28;19917;-61
2021/11/29 04:40:24;;;;;;;;;;;3.40;99.90;;;;;;5024991;28;20377;-60
2021/11/29 04:42:49;;;;;;;;;;;3.40;99.90;;;;;;5025182;28;19921;-61
2021/11/29 04:45:15;;;;;;;;;;;3.40;99.90;;;;;;5024015;28;19913;-60
2021/11/29 04:47:40;;;;;;;;;;;3.40;99.90;;;;;;5027329;28;19956;-61
2021/11/29 04:50:06;;;;;;;;;;;3.40;99.90;;;;;;5024112;28;20008;-60
2021/11/29 04:52:32;;;;;;;;;;;3.40;99.90;;;;;;5025405;28;20004;-60
2021/11/29 04:54:58;;;;;;;;;;;3.40;99.90;;;;;;5024073;28;20036;-60
2021/11/29 04:57:23;;;;;;;;;;;3.40;99.90;;;;;;5028964;28;19928;-60
2021/11/29 04:59:49;;;;;;;;;;;3.30;99.90;;;;;;5028736;28;20396;-60
2021/11/29 05:02:14;;;;;;;;;;;3.40;99.90;;;;;;5026602;28;19917;-60
2021/11/29 05:04:45;;;;;;;;;;;3.30;99.90;;;;;;5026994;28;20456;-60
2021/11/29 05:07:10;;;;;;;;;;;3.40;99.90;;;;;;5027102;28;19913;-60
2021/11/29 05:09:36;;;;;;;;;;;3.40;99.90;;;;;;5028439;28;19924;-61
2021/11/29 05:12:01;;;;;;;;;;;3.40;99.90;;;;;;5028638;28;19917;-60
2021/11/29 05:14:27;;;;;;;;;;;3.40;99.90;;;;;;5026300;28;20388;-60
2021/11/29 05:16:52;;;;;;;;;;;3.40;99.90;;;;;;5029490;28;19920;-60
2021/11/29 05:19:17;;;;;;;;;;;3.40;99.90;;;;;;5027653;28;19917;-60
2021/11/29 05:21:43;;;;;;;;;;;3.30;99.90;;;;;;5027558;28;19913;-60
2021/11/29 05:24:08;;;;;;;;;;;3.30;99.90;;;;;;5027605;28;19923;-60
2021/11/29 05:26:34;;;;;;;;;;;3.30;99.90;;;;;;5025423;28;19917;-60
2021/11/29 05:29:00;;;;;;;;;;;3.30;99.90;;;;;;5024715;28;19927;-60
2021/11/29 05:31:26;;;;;;;;;;;3.30;99.90;;;;;;5027426;28;19917;-60
2021/11/29 05:33:52;;;;;;;;;;;3.30;99.90;;;;;;5008477;28;19917;-60
2021/11/29 05:36:17;;;;;;;;;;;3.20;99.90;;;;;;5019915;28;20015;-60
2021/11/29 05:38:43;;;;;;;;;;;3.20;99.90;;;;;;5027075;28;19913;-60
2021/11/29 05:41:09;;;;;;;;;;;3.20;99.90;;;;;;5026564;28;19918;-60
2021/11/29 05:43:34;;;;;;;;;;;3.20;99.90;;;;;;5024533;28;20641;-61
2021/11/29 05:46:00;;;;;;;;;;;3.20;99.90;;;;;;5025735;28;19919;-61
2021/11/29 05:48:27;;;;;;;;;;;3.20;99.90;;;;;;5024657;28;20391;-61
2021/11/29 05:50:52;;;;;;;;;;;3.30;99.90;;;;;;5025692;28;19924;-61
2021/11/29 05:53:18;;;;;;;;;;;3.30;99.90;;;;;;5023929;28;20297;-60
2021/11/29 05:55:43;;;;;;;;;;;3.20;99.90;;;;;;5022845;28;19917;-60
2021/11/29 05:58:09;;;;;;;;;;;3.20;99.90;;;;;;5022710;28;19963;-62
2021/11/29 06:00:35;;;;;;;;;;;3.20;99.90;;;;;;5019104;28;19921;-61
2021/11/29 06:03:00;;;;;;;;;;;3.20;99.90;;;;;;5016748;28;19928;-61
2021/11/29 06:05:26;;;;;;;;;;;3.20;99.90;;;;;;5021731;28;20018;-61
2021/11/29 06:07:51;;;;;;;;;;;3.20;99.90;;;;;;5025409;28;19944;-60
2021/11/29 06:10:17;;;;;;;;;;;3.20;99.90;;;;;;5025865;28;20343;-60
2021/11/29 06:12:43;;;;;;;;;;;3.20;99.90;;;;;;5024974;28;20274;-61
2021/11/29 06:15:09;;;;;;;;;;;3.20;99.90;;;;;;5023967;28;19928;-61
2021/11/29 06:17:35;;;;;;;;;;;3.20;99.90;;;;;;5023986;28;19914;-61
2021/11/29 06:20:01;;;;;;;;;;;3.20;99.90;;;;;;5024279;28;19917;-61
2021/11/29 06:22:27;;;;;;;;;;;3.10;99.90;;;;;;5024812;28;19952;-61
2021/11/29 06:24:52;;;;;;;;;;;3.20;99.90;;;;;;5005568;28;19953;-61
2021/11/29 06:27:17;;;;;;;;;;;3.20;99.90;;;;;;5026257;28;19953;-61
2021/11/29 06:29:44;;;;;;;;;;;3.20;99.90;;;;;;5021975;28;20058;-61
2021/11/29 06:32:10;;;;;;;;;;;3.30;99.90;;;;;;4998782;28;20465;-60
2021/11/29 06:34:36;;;;;;;;;;;3.30;99.90;;;;;;5024210;28;20056;-62
2021/11/29 06:37:01;;;;;;;;;;;3.50;99.90;;;;;;5027492;28;19920;-61
2021/11/29 06:39:29;;;;;;;;;;;3.50;99.90;;;;;;5006664;28;19913;-62
2021/11/29 06:41:54;;;;;;;;;;;3.40;99.90;;;;;;5019825;28;20131;-61
2021/11/29 06:44:20;;;;;;;;;;;3.40;99.90;;;;;;5021585;28;20031;-61
2021/11/29 06:46:45;;;;;;;;;;;3.30;99.90;;;;;;5020035;28;19917;-60
2021/11/29 06:49:11;;;;;;;;;;;3.30;99.90;;;;;;5012848;28;19913;-60
2021/11/29 06:51:36;;;;;;;;;;;3.30;99.90;;;;;;5022248;28;19909;-60
2021/11/29 06:54:01;;;;;;;;;;;3.30;99.90;;;;;;5022074;28;19960;-60
2021/11/29 06:56:27;;;;;;;;;;;3.30;99.90;;;;;;5022794;28;19924;-60
2021/11/29 06:58:52;;;;;;;;;;;3.30;99.90;;;;;;5024554;28;20011;-60
2021/11/29 07:01:18;;;;;;;;;;;3.30;99.90;;;;;;5024848;28;20385;-60
2021/11/29 07:03:45;;;;;;;;;;;3.30;99.90;;;;;;5024520;28;19924;-60
2021/11/29 07:06:10;;;;;;;;;;;3.30;99.90;;;;;;5026769;28;19915;-60
2021/11/29 07:08:36;;;;;;;;;;;3.30;99.90;;;;;;5027830;28;19917;-60
2021/11/29 07:11:01;;;;;;;;;;;3.30;99.90;;;;;;5026977;28;19948;-60
2021/11/29 07:13:27;;;;;;;;;;;3.30;99.90;;;;;;5025517;28;19967;-60
2021/11/29 07:15:53;;;;;;;;;;;3.30;99.90;;;;;;5025827;28;20312;-60
2021/11/29 07:18:18;;;;;;;;;;;3.30;99.90;;;;;;5026588;28;19913;-60
2021/11/29 07:20:44;;;;;;;;;;;3.20;99.90;;;;;;5027412;28;19913;-60
2021/11/29 07:23:10;;;;;;;;;;;3.20;99.90;;;;;;5026842;28;20378;-60
2021/11/29 07:25:35;;;;;;;;;;;3.10;99.90;;;;;;5019899;28;21123;-60
2021/11/29 07:28:01;;;;;;;;;;;3.10;99.90;;;;;;5035204;23;20628;-68
2021/11/29 07:30:27;;;;;;;;;;;3.10;99.90;;;;;;5014238;28;19924;-69
2021/11/29 07:32:54;;;;;;;;;;;3.10;99.90;;;;;;5023472;28;20404;-68
2021/11/29 07:35:24;;;;;;;;;;;3.10;99.90;;;;;;5025926;28;19912;-68
2021/11/29 07:37:49;;;;;;;;;;;3.20;99.90;;;;;;5028368;28;19948;-68
2021/11/29 07:40:15;;;;;;;;;;;3.20;99.90;;;;;;5024899;28;19960;-69
2021/11/29 07:42:40;;;;;;;;;;;3.20;99.90;;;;;;5026931;28;20304;-69
2021/11/29 07:45:07;;;;;;;;;;;3.20;99.90;;;;;;5027011;28;20283;-69
2021/11/29 07:47:32;;;;;;;;;;;3.20;99.90;;;;;;5023741;28;19924;-69
2021/11/29 07:49:57;;;;;;;;;;;3.30;99.90;;;;;;5025329;28;19913;-69
2021/11/29 07:52:23;;;;;;;;;;;3.30;99.90;;;;;;5023434;28;19921;-69
2021/11/29 07:54:49;;;;;;;;;;;3.30;99.90;;;;;;5006752;28;20015;-70
2021/11/29 07:57:16;;;;;;;;;;;3.40;99.90;;;;;;5027171;28;19914;-70
2021/11/29 07:59:42;;;;;;;;;;;3.40;99.90;;;;;;5022919;28;20415;-69
2021/11/29 08:02:09;;;;;;;;;;;3.40;99.90;;;;;;5023229;28;19917;-69
2021/11/29 08:04:34;;;;;;;;;;;3.40;99.90;;;;;;5025667;28;20356;-69
2021/11/29 08:07:00;;;;;;;;;;;3.30;99.90;;;;;;5023890;28;20000;-69
2021/11/29 08:09:25;;;;;;;;;;;3.30;99.90;;;;;;5021900;28;19921;-71
2021/11/29 08:11:51;;;;;;;;;;;3.30;99.90;;;;;;5026140;28;19979;-69
2021/11/29 08:14:16;;;;;;;;;;;3.30;99.90;;;;;;5022945;28;20380;-71
2021/11/29 08:16:41;;;;;;;;;;;3.40;99.90;;;;;;5005109;28;20292;-70
2021/11/29 08:19:07;;;;;;;;;;;3.40;99.90;;;;;;5024958;28;19953;-70
2021/11/29 08:21:32;;;;;;;;;;;3.40;99.90;;;;;;5028720;28;19928;-69
2021/11/29 08:23:58;;;;;;;;;;;3.40;99.90;;;;;;5010529;28;20318;-69
2021/11/29 08:26:25;;;;;;;;;;;3.40;99.90;;;;;;5022943;28;19917;-70
2021/11/29 08:28:51;;;;;;;;;;;3.40;99.90;;;;;;5023537;28;19968;-70
2021/11/29 08:31:16;;;;;;;;;;;3.40;99.90;;;;;;5011071;28;19948;-70
2021/11/29 08:33:42;;;;;;;;;;;3.40;99.90;;;;;;5030729;28;20015;-69
2021/11/29 08:36:07;;;;;;;;;;;3.40;99.90;;;;;;5030182;28;20020;-69
2021/11/29 08:38:34;;;;;;;;;;;3.40;99.90;;;;;;5028256;28;19965;-69
2021/11/29 08:41:00;;;;;;;;;;;3.30;99.90;;;;;;5029849;28;20372;-69
2021/11/29 08:43:25;;;;;;;;;;;3.40;99.90;;;;;;5030211;28;19971;-70
2021/11/29 08:45:52;;;;;;;;;;;3.40;99.90;;;;;;5025764;28;19913;-69
2021/11/29 08:48:17;;;;;;;;;;;3.40;99.90;;;;;;5025450;28;19929;-70
2021/11/29 08:50:44;;;;;;;;;;;3.50;99.90;;;;;;5029575;28;19917;-71
2021/11/29 08:53:10;;;;;;;;;;;3.50;99.90;;;;;;5028048;28;19917;-68
2021/11/29 08:55:36;;;;;;;;;;;3.50;99.90;;;;;;5028177;28;20296;-69
2021/11/29 08:58:03;;;;;;;;;;;3.50;99.90;;;;;;5027925;28;19917;-67
2021/11/29 09:00:28;;;;;;;;;;;3.50;99.90;;;;;;5026140;28;19921;-68
2021/11/29 09:02:54;;;;;;;;;;;3.50;99.90;;;;;;5030641;28;20291;-68
2021/11/29 09:05:19;;;;;;;;;;;3.60;99.90;;;;;;5026355;28;19948;-69
2021/11/29 09:07:45;;;;;;;;;;;3.60;99.90;;;;;;5030340;28;19910;-68
2021/11/29 09:10:12;;;;;;;;;;;3.60;99.90;;;;;;5026050;28;19920;-69
2021/11/29 09:12:38;;;;;;;;;;;3.60;99.90;;;;;;5029866;28;20389;-69
2021/11/29 09:15:09;;;;;;;;;;;3.60;99.90;;;;;;5007286;28;19920;-68
2021/11/29 09:17:34;;;;;;;;;;;3.60;99.90;;;;;;5011685;28;20296;-68
2021/11/29 09:20:01;;;;;;;;;;;3.60;99.90;;;;;;5024901;28;19920;-68
2021/11/29 09:22:27;;;;;;;;;;;3.50;99.90;;;;;;5030289;28;19913;-69
2021/11/29 09:24:52;;;;;;;;;;;3.60;99.90;;;;;;5030322;28;20427;-69
2021/11/29 09:27:18;;;;;;;;;;;3.60;99.90;;;;;;5025130;28;19917;-70
2021/11/29 09:29:48;;;;;;;;;;;3.60;99.90;;;;;;5027440;28;19947;-70
2021/11/29 09:32:14;;;;;;;;;;;3.60;99.90;;;;;;5024782;28;19913;-70
2021/11/29 09:34:39;;;;;;;;;;;3.60;99.90;;;;;;5026674;28;19923;-70
2021/11/29 09:37:05;;;;;;;;;;;3.60;99.90;;;;;;5030137;28;20364;-70
2021/11/29 09:39:30;;;;;;;;;;;3.60;99.90;;;;;;5027259;28;20380;-70
2021/11/29 09:41:56;;;;;;;;;;;3.60;99.90;;;;;;5027853;28;19996;-67
2021/11/29 09:44:21;;;;;;;;;;;3.70;99.90;;;;;;5026113;28;19994;-71
2021/11/29 09:46:47;;;;;;;;;;;3.70;99.90;;;;;;5029004;28;20300;-70
2021/11/29 09:49:12;;;;;;;;;;;3.80;99.90;;;;;;5028481;28;19975;-70
2021/11/29 09:51:37;;;;;;;;;;;3.80;99.90;;;;;;5027009;28;20010;-71
2021/11/29 09:54:04;;;;;;;;;;;3.80;99.90;;;;;;5026777;28;19957;-70
2021/11/29 09:56:30;;;;;;;;;;;3.80;99.90;;;;;;5009591;28;20564;-70
2021/11/29 09:58:57;;;;;;;;;;;3.80;99.90;;;;;;5024981;28;19917;-69
2021/11/29 10:01:23;;;;;;;;;;;3.80;99.90;;;;;;5022027;28;20231;-69
2021/11/29 10:03:48;;;;;;;;;;;3.80;99.90;;;;;;5026472;28;19913;-69
2021/11/29 10:06:13;;;;;;;;;;;3.80;99.90;;;;;;5005706;28;19960;-70
2021/11/29 10:08:39;;;;;;;;;;;3.80;99.90;;;;;;5025703;28;19960;-69
2021/11/29 10:11:13;;;;;;;;;;;3.80;99.90;;;;;;5027083;28;20411;-70
2021/11/29 10:13:53;;;;;;;;;;;3.90;99.90;;;;;;5024410;28;19914;-69
2021/11/29 10:16:34;;;;;;;;;;;3.90;99.90;;;;;;5006956;28;20003;-69
2021/11/29 10:19:00;;;;;;;;;;;3.90;99.90;;;;;;5028961;28;20489;-69
2021/11/29 10:21:26;;;;;;;;;;;3.90;99.90;;;;;;5027385;28;19917;-70
2021/11/29 10:23:52;;;;;;;;;;;3.90;99.90;;;;;;5026636;28;20082;-70
2021/11/29 10:26:24;;;;;;;;;;;3.90;99.90;;;;;;5028622;28;19909;-68
2021/11/29 10:28:55;;;;;;;;;;;3.90;99.90;;;;;;5026347;28;19917;-68
2021/11/29 10:31:23;;;;;;;;;;;3.90;99.90;;;;;;5024868;28;19913;-69
2021/11/29 10:33:51;;;;;;;;;;;4.00;99.90;;;;;;5025851;28;19913;-68
2021/11/29 10:36:17;;;;;;;;;;;4.00;99.90;;;;;;5026310;28;19914;-69
2021/11/29 10:38:43;;;;;;;;;;;3.90;99.90;;;;;;5009914;28;20854;-69
2021/11/29 10:41:10;;;;;;;;;;;4.00;99.90;;;;;;5025321;28;19996;-70
2021/11/29 10:43:36;;;;;;;;;;;4.00;99.90;;;;;;5025169;28;19913;-68
2021/11/29 10:46:18;;;;;;;;;;;4.10;99.90;;;;;;5029781;28;19913;-70
2021/11/29 10:48:44;;;;;;;;;;;4.10;99.90;;;;;;5008413;28;19925;-69
2021/11/29 10:51:11;;;;;;;;;;;4.10;99.90;;;;;;5025528;28;19913;-70
2021/11/29 10:53:46;;;;;;;;;;;4.10;99.90;;;;;;5018497;28;19922;-70
2021/11/29 10:56:11;;;;;;;;;;;4.10;99.90;;;;;;5025557;28;19940;-70
2021/11/29 10:58:41;;;;;;;;;;;4.10;99.90;;;;;;5024078;28;20400;-69
2021/11/29 11:01:06;;;;;;;;;;;4.10;99.90;;;;;;5026049;28;20403;-71
2021/11/29 11:03:48;;;;;;;;;;;4.00;99.90;;;;;;5024701;28;19917;-70
2021/11/29 11:06:14;;;;;;;;;;;4.00;99.90;;;;;;5022920;28;19922;-70
2021/11/29 11:08:39;;;;;;;;;;;4.00;99.90;;;;;;5022618;28;19991;-69
2021/11/29 11:11:23;;;;;;;;;;;4.00;99.90;;;;;;5021787;28;20437;-70
2021/11/29 11:13:55;;;;;;;;;;;4.00;99.90;;;;;;5025322;28;20015;-70
2021/11/29 11:16:37;;;;;;;;;;;4.00;99.90;;;;;;5022858;28;20340;-70
2021/11/29 11:19:02;;;;;;;;;;;4.00;99.90;;;;;;5025472;28;19921;-70
2021/11/29 11:21:32;;;;;;;;;;;4.00;99.90;;;;;;5024921;28;20339;-68
2021/11/29 11:24:16;;;;;;;;;;;4.00;99.90;;;;;;5027112;28;19999;-68
2021/11/29 11:26:44;;;;;;;;;;;4.00;99.90;;;;;;5026472;28;19913;-68
2021/11/29 11:29:12;;;;;;;;;;;4.00;99.90;;;;;;5024076;28;20039;-67
2021/11/29 11:31:37;;;;;;;;;;;4.00;99.90;;;;;;5024165;28;20434;-67
2021/11/29 11:34:03;;;;;;;;;;;4.00;99.90;;;;;;5016353;28;19917;-67
2021/11/29 11:36:28;;;;;;;;;;;4.00;99.90;;;;;;5007253;28;19917;-67
2021/11/29 11:38:54;;;;;;;;;;;4.00;99.90;;;;;;5009663;28;19920;-67
2021/11/29 11:41:20;;;;;;;;;;;4.10;99.90;;;;;;5024085;28;19948;-68
2021/11/29 11:43:46;;;;;;;;;;;4.10;99.90;;;;;;5025409;28;19917;-69
2021/11/29 11:46:11;;;;;;;;;;;4.10;99.90;;;;;;5008958;28;19909;-68
2021/11/29 11:48:37;;;;;;;;;;;4.20;99.90;;;;;;5023377;28;19921;-69
2021/11/29 11:51:02;;;;;;;;;;;4.10;99.90;;;;;;5023098;28;19971;-67
2021/11/29 11:53:28;;;;;;;;;;;4.20;99.90;;;;;;5026897;28;20372;-69
2021/11/29 11:55:53;;;;;;;;;;;4.10;99.90;;;;;;5027432;28;19962;-70
2021/11/29 11:58:26;;;;;;;;;;;4.10;99.90;;;;;;5024876;28;19913;-69
2021/11/29 12:01:02;;;;;;;;;;;4.10;99.90;;;;;;5023711;28;20219;-69
2021/11/29 12:03:29;;;;;;;;;;;4.20;99.90;;;;;;5023796;28;19964;-69
2021/11/29 12:05:55;;;;;;;;;;;4.10;99.90;;;;;;5029371;28;19921;-68
2021/11/29 12:08:32;;;;;;;;;;;4.10;99.90;;;;;;5028269;28;19939;-70
2021/11/29 12:10:58;;;;;;;;;;;4.10;99.90;;;;;;5026477;28;19975;-70
2021/11/29 12:13:26;;;;;;;;;;;4.10;99.90;;;;;;5031094;28;20335;-70
2021/11/29 12:15:56;;;;;;;;;;;4.10;99.90;;;;;;5029889;28;19924;-69
2021/11/29 12:18:33;;;;;;;;;;;4.20;99.90;;;;;;5032169;28;19917;-69
2021/11/29 12:21:10;;;;;;;;;;;4.20;99.90;;;;;;5026126;28;19917;-69
2021/11/29 12:23:41;;;;;;;;;;;4.20;99.90;;;;;;5029333;28;20088;-69
2021/11/29 12:26:06;;;;;;;;;;;4.20;99.90;;;;;;5030609;28;19924;-69
2021/11/29 12:28:40;;;;;;;;;;;4.20;99.90;;;;;;5029152;28;19919;-69
2021/11/29 12:31:41;;;;;;;;;;;4.20;99.90;;;;;;5027597;28;19917;-69
2021/11/29 12:34:08;;;;;;;;;;;4.30;99.90;;;;;;4917761;29;20425;-69
2021/11/29 12:36:53;;;;;;;;;;;4.40;99.90;;;;;;5011652;28;20364;-69
2021/11/29 12:39:37;;;;;;;;;;;4.40;99.90;;;;;;5028895;28;19920;-69
2021/11/29 12:42:02;;;;;;;;;;;4.40;99.90;;;;;;5026581;28;19971;-70
2021/11/29 12:44:44;;;;;;;;;;;4.40;99.90;;;;;;5026072;28;19963;-71
2021/11/29 12:47:20;;;;;;;;;;;4.40;99.90;;;;;;5019592;28;19914;-71
2021/11/29 12:49:46;;;;;;;;;;;4.40;99.90;;;;;;5030109;28;19955;-71
2021/11/29 12:52:27;;;;;;;;;;;4.40;99.90;;;;;;5030199;28;19913;-71
2021/11/29 12:54:53;;;;;;;;;;;4.30;99.90;;;;;;5030230;28;20335;-68
2021/11/29 12:57:21;;;;;;;;;;;4.30;99.90;;;;;;5025330;28;20273;-68
2021/11/29 13:00:05;;;;;;;;;;;4.20;99.90;;;;;;5025830;28;19917;-67
2021/11/29 13:02:50;;;;;;;;;;;4.20;99.90;;;;;;5027267;28;19913;-70
2021/11/29 13:05:22;;;;;;;;;;;4.20;99.90;;;;;;5028369;28;19913;-70
2021/11/29 13:07:57;;;;;;;;;;;4.20;99.90;;;;;;5027154;28;20062;-70
2021/11/29 13:10:41;;;;;;;;;;;4.20;99.90;;;;;;5024357;28;20014;-70
2021/11/29 13:13:23;;;;;;;;;;;4.30;99.90;;;;;;5025992;28;19960;-70
2021/11/29 13:15:53;;;;;;;;;;;4.30;99.90;;;;;;5028121;28;19932;-70
2021/11/29 13:18:37;;;;;;;;;;;4.30;99.90;;;;;;5027700;28;19956;-70
2021/11/29 13:21:02;;;;;;;;;;;4.30;99.90;;;;;;5026854;28;19920;-69
2021/11/29 13:23:29;;;;;;;;;;;4.20;99.90;;;;;;5011023;28;19933;-70
2021/11/29 13:26:01;;;;;;;;;;;4.20;99.90;;;;;;5019480;28;20689;-70
2021/11/29 13:28:27;;;;;;;;;;;4.20;99.90;;;;;;5040043;22;19983;-62
2021/11/29 13:30:52;;;;;;;;;;;4.10;99.90;;;;;;5012838;28;20148;-62
2021/11/29 13:33:18;;;;;;;;;;;4.10;99.90;;;;;;4991967;28;19968;-62
2021/11/29 13:35:45;;;;;;;;;;;4.10;99.90;;;;;;4997176;28;19920;-62
2021/11/29 13:38:11;;;;;;;;;;;4.10;99.90;;;;;;4991688;28;20436;-63
2021/11/29 13:40:36;;;;;;;;;;;4.10;99.90;;;;;;4991343;28;19925;-61
2021/11/29 13:43:03;;;;;;;;;;;4.10;99.90;;;;;;4993635;28;19965;-62
2021/11/29 13:45:31;;;;;;;;;;;4.20;99.90;;;;;;4995586;28;19918;-62
2021/11/29 13:47:59;;;;;;;;;;;4.20;99.90;;;;;;4993686;28;19945;-62
2021/11/29 13:50:25;;;;;;;;;;;4.20;99.90;;;;;;4992701;28;19917;-62
2021/11/29 13:52:52;;;;;;;;;;;4.20;99.90;;;;;;4991521;28;19910;-63
2021/11/29 13:55:22;;;;;;;;;;;4.20;99.90;;;;;;4993675;28;19922;-62
2021/11/29 13:57:52;;;;;;;;;;;4.10;99.90;;;;;;4986229;28;20367;-61
2021/11/29 14:00:34;;;;;;;;;;;4.10;99.90;;;;;;4999011;28;19964;-63
2021/11/29 14:03:00;;;;;;;;;;;4.00;99.90;;;;;;4985100;28;19917;-64
2021/11/29 14:05:33;;;;;;;;;;;4.00;99.90;;;;;;4995350;28;20116;-63
2021/11/29 14:08:02;;;;;;;;;;;4.00;99.90;;;;;;4993941;28;19909;-63
2021/11/29 14:10:32;;;;;;;;;;;4.00;99.90;;;;;;4992019;28;20390;-63
2021/11/29 14:12:58;;;;;;;;;;;4.00;99.90;;;;;;4993521;28;20394;-64
2021/11/29 14:15:29;;;;;;;;;;;4.00;99.90;;;;;;4989700;28;20000;-63
2021/11/29 14:17:55;;;;;;;;;;;4.00;99.90;;;;;;4996452;28;19918;-64
2021/11/29 14:20:21;;;;;;;;;;;3.90;99.90;;;;;;4988065;28;19929;-62
2021/11/29 14:22:49;;;;;;;;;;;3.90;99.90;;;;;;4988760;28;19917;-63
2021/11/29 14:25:16;;;;;;;;;;;3.90;99.90;;;;;;4991860;28;19925;-63
2021/11/29 14:27:42;;;;;;;;;;;3.90;99.90;;;;;;4992744;28;19917;-63
2021/11/29 14:30:08;;;;;;;;;;;3.90;99.90;;;;;;4991004;28;20290;-63
2021/11/29 14:32:33;;;;;;;;;;;4.00;99.90;;;;;;4996485;28;20111;-64